Time;durP1;ratioP1;P1;durP2;ratioP2;P2;SDS_P1;SDS_P2;PMS_P1;PMS_P2;Temp;Humidity;BMP_temperature;BMP_pressure;BME280_temperature;BME280_humidity;BME280_pressure;Samples;Min_cycle;Max_cycle;Signal;HPM_P1;HPM_P2
2022/04/17 00:00:01;;;;;;;112.70;102.63;;;10.70;47.70;;;;;;5034401;28;20531;-77
2022/04/17 00:02:31;;;;;;;111.75;101.80;;;10.60;47.60;;;;;;5016679;28;20049;-77
2022/04/17 00:04:58;;;;;;;111.63;101.80;;;10.60;47.60;;;;;;5032758;28;20844;-77
2022/04/17 00:07:26;;;;;;;112.18;102.28;;;10.60;47.60;;;;;;5016310;28;20495;-77
2022/04/17 00:09:54;;;;;;;112.22;102.22;;;10.60;47.80;;;;;;5016327;28;20129;-77
2022/04/17 00:12:23;;;;;;;112.53;102.53;;;10.50;47.80;;;;;;5016364;28;20054;-77
2022/04/17 00:14:50;;;;;;;115.03;104.72;;;10.50;47.90;;;;;;5016238;28;20057;-77
2022/04/17 00:17:17;;;;;;;116.38;105.97;;;10.50;48.10;;;;;;5015637;28;20060;-76
2022/04/17 00:19:44;;;;;;;112.38;102.28;;;10.40;48.30;;;;;;5015538;28;20056;-77
2022/04/17 00:22:11;;;;;;;;;;;10.40;48.40;;;;;;5000059;28;20164;-77
2022/04/17 00:24:39;;;;;;;112.82;102.57;;;10.40;48.80;;;;;;5000243;28;19925;-77
2022/04/17 00:27:06;;;;;;;114.07;103.88;;;10.40;48.50;;;;;;5033299;28;20157;-77
2022/04/17 00:29:33;;;;;;;112.75;102.72;;;10.40;48.70;;;;;;4999645;28;20125;-77
2022/04/17 00:32:00;;;;;;;113.38;103.07;;;10.30;48.50;;;;;;5016297;28;20164;-77
2022/04/17 00:34:29;;;;;;;114.10;103.82;;;10.30;48.50;;;;;;5033963;28;20511;-77
2022/04/17 00:36:59;;;;;;;114.28;104.13;;;10.30;48.60;;;;;;5015998;28;20138;-77
2022/04/17 00:39:26;;;;;;;112.28;102.07;;;10.30;48.60;;;;;;5032736;28;20077;-77
2022/04/17 00:41:54;;;;;;;112.72;102.68;;;10.20;48.60;;;;;;5016193;28;20066;-77
2022/04/17 00:44:21;;;;;;;114.07;103.78;;;10.20;48.60;;;;;;5033589;28;20050;-77
2022/04/17 00:46:48;;;;;;;113.82;103.72;;;10.20;48.60;;;;;;5033826;28;20050;-77
2022/04/17 00:49:16;;;;;;;114.10;103.82;;;10.20;48.80;;;;;;5015732;28;20049;-77
2022/04/17 00:51:44;;;;;;;113.85;103.45;;;10.10;48.70;;;;;;5015594;28;20137;-77
2022/04/17 00:54:13;;;;;;;113.30;103.00;;;10.10;48.80;;;;;;5016223;28;20050;-77
2022/04/17 00:56:41;;;;;;;114.18;103.90;;;10.00;48.80;;;;;;5015890;28;20530;-77
2022/04/17 00:59:10;;;;;;;115.60;105.15;;;10.00;49.10;;;;;;5015259;28;20129;-77
2022/04/17 01:01:38;;;;;;;113.20;102.75;;;10.00;49.30;;;;;;4999119;28;20049;-77
2022/04/17 01:04:06;;;;;;;115.00;104.60;;;10.00;49.40;;;;;;5015692;28;20085;-77
2022/04/17 01:06:33;;;;;;;114.50;104.30;;;9.90;49.50;;;;;;4999668;28;20050;-77
2022/04/17 01:09:01;;;;;;;114.57;104.18;;;9.90;49.50;;;;;;5015566;28;20125;-77
2022/04/17 01:11:28;;;;;;;113.47;102.88;;;9.80;49.50;;;;;;5015577;28;20140;-77
2022/04/17 01:13:55;;;;;;;113.93;103.80;;;9.80;49.80;;;;;;5015726;28;20776;-77
2022/04/17 01:16:24;;;;;;;113.88;103.78;;;9.80;49.90;;;;;;5015786;28;20046;-77
2022/04/17 01:18:55;;;;;;;115.38;104.97;;;9.80;50.10;;;;;;5015359;28;20054;-77
2022/04/17 01:21:23;;;;;;;114.20;103.90;;;9.80;50.20;;;;;;5033351;28;20062;-77
2022/04/17 01:29:21;;;;;;;113.03;102.68;;;9.70;50.40;;;;;;5015473;28;20045;-77
2022/04/17 01:31:48;;;;;;;112.53;102.38;;;9.70;50.50;;;;;;5031833;28;20046;-77
2022/04/17 01:34:16;;;;;;;113.13;102.97;;;9.60;50.60;;;;;;4999108;28;20174;-77
2022/04/17 01:36:44;;;;;;;112.45;102.45;;;9.60;50.90;;;;;;5015419;28;20054;-77
2022/04/17 01:39:11;;;;;;;113.47;103.22;;;9.60;51.20;;;;;;5034775;28;20083;-77
2022/04/17 01:41:38;;;;;;;113.22;103.05;;;9.60;51.40;;;;;;5036682;28;20053;-77
2022/04/17 01:44:06;;;;;;;113.40;103.30;;;9.60;51.50;;;;;;5018601;28;20060;-77
2022/04/17 01:46:33;;;;;;;113.72;103.47;;;9.60;51.80;;;;;;5018184;28;20066;-77
2022/04/17 01:49:00;;;;;;;112.68;102.47;;;9.50;51.90;;;;;;5017590;28;20046;-77
2022/04/17 01:51:28;;;;;;;113.68;103.38;;;9.50;52.30;;;;;;5017542;28;20583;-76
2022/04/17 01:53:56;;;;;;;113.90;103.57;;;9.50;52.40;;;;;;5035981;28;20081;-76
2022/04/17 01:56:23;;;;;;;114.40;104.03;;;9.50;52.60;;;;;;5017255;28;20149;-76
2022/04/17 01:58:50;;;;;;;112.75;102.65;;;9.40;52.60;;;;;;5018071;28;20149;-76
2022/04/17 02:01:16;;;;;;;113.53;103.43;;;9.40;52.70;;;;;;5018474;28;20045;-77
2022/04/17 02:03:43;;;;;;;114.00;103.70;;;9.40;53.30;;;;;;5034822;28;20129;-77
2022/04/17 02:06:10;;;;;;;;;;;9.40;52.90;;;;;;5018769;28;20050;-76
2022/04/17 02:08:37;;;;;;;112.88;101.97;;;9.30;52.80;;;;;;5018253;28;20395;-76
2022/04/17 02:11:05;;;;;;;;;;;9.30;53.20;;;;;;5018520;28;20050;-76
2022/04/17 02:13:34;;;;;;;112.15;101.85;;;9.30;53.00;;;;;;5018916;28;19952;-76
2022/04/17 02:16:00;;;;;;;112.20;101.80;;;9.30;53.30;;;;;;5034738;28;20784;-76
2022/04/17 02:18:27;;;;;;;112.93;102.60;;;9.30;53.50;;;;;;5017756;28;20049;-76
2022/04/17 02:20:54;;;;;;;113.32;103.13;;;9.20;53.70;;;;;;5018078;28;20053;-76
2022/04/17 02:23:21;;;;;;;113.38;102.93;;;9.20;53.90;;;;;;5017980;28;20133;-77
2022/04/17 02:25:48;;;;;;;113.22;102.93;;;9.20;53.90;;;;;;5036063;28;20496;-76
2022/04/17 02:28:17;;;;;;;113.43;103.13;;;9.20;54.20;;;;;;5017831;28;20060;-76
2022/04/17 02:30:44;;;;;;;114.28;103.82;;;9.20;54.40;;;;;;5017928;28;20464;-77
2022/04/17 02:33:11;;;;;;;114.70;104.30;;;9.20;54.40;;;;;;5035762;28;20085;-76
2022/04/17 02:35:38;;;;;;;113.47;103.18;;;9.20;54.40;;;;;;5035738;28;20062;-76
2022/04/17 02:38:05;;;;;;;113.95;103.55;;;9.10;54.30;;;;;;5017750;28;20056;-76
2022/04/17 02:40:32;;;;;;;113.30;102.90;;;9.10;54.70;;;;;;5018011;28;20132;-76
2022/04/17 02:42:59;;;;;;;114.15;103.78;;;9.10;54.80;;;;;;5001453;28;20088;-76
2022/04/17 02:45:28;;;;;;;113.70;103.30;;;9.10;55.00;;;;;;5034167;28;20100;-76
2022/04/17 02:47:55;;;;;;;113.43;103.13;;;9.10;55.40;;;;;;5035149;28;20567;-76
2022/04/17 02:50:23;;;;;;;113.07;102.78;;;9.10;55.40;;;;;;5032928;28;20052;-76
2022/04/17 02:52:50;;;;;;;112.55;102.47;;;9.00;55.90;;;;;;5017887;28;20072;-76
2022/04/17 02:55:17;;;;;;;112.65;102.47;;;9.00;56.20;;;;;;5035507;28;20054;-77
2022/04/17 02:57:45;;;;;;;114.15;103.65;;;9.00;56.50;;;;;;5017331;28;20042;-76
2022/04/17 03:00:12;;;;;;;116.28;105.68;;;9.00;56.80;;;;;;5017137;28;20118;-76
2022/04/17 03:05:37;;;;;;;113.10;102.75;;;8.90;57.50;;;;;;5001013;28;20151;-76
2022/04/17 03:08:05;;;;;;;114.93;104.50;;;8.90;58.00;;;;;;5033625;28;20100;-77
2022/04/17 03:10:32;;;;;;;114.15;103.65;;;8.80;58.40;;;;;;5017301;28;20149;-76
2022/04/17 03:12:59;;;;;;;114.32;103.82;;;8.80;59.00;;;;;;5033881;28;20049;-76
2022/04/17 03:15:26;;;;;;;114.05;103.57;;;8.80;59.10;;;;;;5035097;28;20099;-76
2022/04/17 03:17:55;;;;;;;112.60;102.35;;;8.80;59.40;;;;;;5016893;28;20100;-77
2022/04/17 03:20:22;;;;;;;114.15;103.60;;;8.80;59.60;;;;;;5035054;28;20571;-76
2022/04/17 03:22:49;;;;;;;113.50;103.20;;;8.70;59.80;;;;;;5016819;28;20108;-76
2022/04/17 03:25:17;;;;;;;112.75;102.40;;;8.70;60.00;;;;;;5017029;28;20061;-76
2022/04/17 03:27:46;;;;;;;113.70;103.40;;;8.70;60.50;;;;;;5016354;28;20049;-76
2022/04/17 03:30:14;;;;;;;115.10;104.75;;;8.70;60.40;;;;;;5033734;28;20482;-76
2022/04/17 03:32:42;;;;;;;113.15;102.75;;;8.70;60.70;;;;;;5034863;28;20057;-76
2022/04/17 03:35:11;;;;;;;113.13;102.60;;;8.60;60.80;;;;;;5017184;28;20050;-76
2022/04/17 03:37:37;;;;;;;111.63;101.53;;;8.60;61.30;;;;;;5033140;28;20050;-77
2022/04/17 03:40:06;;;;;;;112.05;101.88;;;8.60;61.60;;;;;;5000624;28;20061;-77
2022/04/17 03:42:35;;;;;;;112.80;102.50;;;8.60;61.70;;;;;;5034478;28;20144;-76
2022/04/17 03:45:03;;;;;;;113.35;102.97;;;8.60;61.80;;;;;;5016683;28;20057;-77
2022/04/17 03:47:30;;;;;;;111.97;101.78;;;8.50;62.30;;;;;;5016592;28;20050;-76
2022/04/17 03:49:56;;;;;;;111.80;101.68;;;8.50;62.70;;;;;;5016157;28;20065;-76
2022/04/17 03:52:25;;;;;;;111.70;101.57;;;8.50;62.90;;;;;;5033283;28;20049;-76
2022/04/17 03:54:52;;;;;;;111.70;101.30;;;8.50;63.10;;;;;;5034419;28;20054;-76
2022/04/17 03:57:18;;;;;;;113.43;102.82;;;8.50;63.40;;;;;;5033037;28;20048;-76
2022/04/17 03:59:46;;;;;;;;;;;8.40;63.70;;;;;;5017010;28;20065;-76
2022/04/17 04:02:13;;;;;;;114.85;104.00;;;8.40;63.30;;;;;;5015931;28;19925;-76
2022/04/17 04:04:39;;;;;;;;;;;8.30;63.60;;;;;;5017396;28;20042;-76
2022/04/17 04:07:06;;;;;;;115.28;104.57;;;8.20;63.10;;;;;;5033047;28;20391;-76
2022/04/17 04:09:34;;;;;;;113.47;102.97;;;8.10;63.90;;;;;;5034053;28;20054;-76
2022/04/17 04:12:01;;;;;;;113.90;103.20;;;8.00;64.40;;;;;;5016407;28;20488;-76
2022/04/17 04:14:28;;;;;;;113.53;103.03;;;7.90;64.60;;;;;;5016150;28;20060;-76
2022/04/17 04:16:55;;;;;;;;;;;7.90;65.20;;;;;;5016585;28;20042;-76
2022/04/17 04:19:22;;;;;;;114.28;103.47;;;7.90;64.90;;;;;;5016721;28;20008;-77
2022/04/17 04:21:48;;;;;;;;;;;7.80;65.50;;;;;;5034105;28;20057;-76
2022/04/17 04:24:17;;;;;;;113.75;102.80;;;7.80;65.10;;;;;;4999891;28;19935;-76
2022/04/17 04:28:32;;;;;;;113.22;102.72;;;7.70;65.50;;;;;;5015670;28;20042;-76
2022/04/17 04:29:32;;;;;;;114.07;103.38;;;7.70;65.90;;;;;;5015430;28;20085;-76
2022/04/17 04:31:58;;;;;;;112.93;102.43;;;7.70;66.50;;;;;;5032358;28;20416;-76
2022/04/17 04:34:25;;;;;;;;;;;7.70;66.90;;;;;;4999664;28;20049;-76
2022/04/17 04:36:52;;;;;;;115.05;104.15;;;7.70;66.90;;;;;;5016043;28;20444;-76
2022/04/17 04:39:19;;;;;;;115.32;104.47;;;7.70;67.20;;;;;;5033489;28;20046;-76
2022/04/17 04:41:47;;;;;;;114.25;103.65;;;7.70;67.50;;;;;;5033556;28;20085;-77
2022/04/17 04:44:14;;;;;;;112.43;101.95;;;7.70;67.80;;;;;;5015663;28;20058;-76
2022/04/17 04:46:40;;;;;;;;;;;7.70;68.00;;;;;;5015953;28;20038;-76
2022/04/17 04:51:51;;;;;;;113.13;102.13;;;7.60;67.40;;;;;;5033228;28;20514;-76
2022/04/17 04:54:18;;;;;;;;;;;7.60;68.10;;;;;;5016054;28;20085;-76
2022/04/17 04:56:46;;;;;;;;;;;7.60;67.50;;;;;;5000132;28;19929;-76
2022/04/17 04:59:13;;;;;;;115.10;103.75;;;7.50;67.60;;;;;;5015469;28;19925;-76
2022/04/17 05:01:40;;;;;;;115.40;104.63;;;7.50;68.10;;;;;;5015000;28;20130;-76
2022/04/17 05:04:07;;;;;;;116.82;105.63;;;7.50;68.70;;;;;;5033450;28;20057;-76
2022/04/17 05:06:34;;;;;;;118.13;107.18;;;7.50;68.80;;;;;;5015310;28;20520;-76
2022/04/17 05:09:00;;;;;;;114.22;103.53;;;7.50;68.90;;;;;;5033248;28;20050;-76
2022/04/17 05:11:28;;;;;;;116.60;105.85;;;7.50;69.20;;;;;;4999206;28;20057;-77
2022/04/17 05:13:56;;;;;;;114.90;104.30;;;7.50;69.30;;;;;;5017273;28;20057;-76
2022/04/17 05:16:23;;;;;;;115.20;104.30;;;7.50;70.00;;;;;;5002520;28;20048;-77
2022/04/17 05:19:00;;;;;;;116.53;105.72;;;7.40;70.60;;;;;;5018664;28;20066;-76
2022/04/17 05:21:31;;;;;;;117.18;106.13;;;7.40;70.40;;;;;;5036993;28;20061;-76
2022/04/17 05:23:58;;;;;;;114.22;103.55;;;7.40;70.60;;;;;;5018974;28;20082;-76
2022/04/17 05:26:25;;;;;;;116.28;105.40;;;7.40;70.50;;;;;;5018418;28;20136;-76
2022/04/17 05:28:52;;;;;;;114.38;103.82;;;7.40;70.20;;;;;;5035424;28;20103;-76
2022/04/17 05:31:20;;;;;;;;;;;7.40;70.30;;;;;;5035739;28;20531;-77
2022/04/17 05:33:47;;;;;;;115.53;104.53;;;7.40;68.90;;;;;;5036968;28;19925;-76
2022/04/17 05:36:14;;;;;;;117.70;106.78;;;7.40;69.80;;;;;;5018747;28;20185;-76
2022/04/17 05:38:40;;;;;;;116.28;105.38;;;7.40;70.30;;;;;;5034707;28;20054;-76
2022/04/17 05:41:10;;;;;;;117.47;106.57;;;7.40;70.50;;;;;;5018591;28;20128;-76
2022/04/17 05:43:38;;;;;;;115.47;104.68;;;7.40;70.80;;;;;;5035102;28;20136;-76
2022/04/17 05:46:05;;;;;;;116.55;105.57;;;7.40;71.20;;;;;;5016758;28;20081;-76
2022/04/17 05:48:33;;;;;;;;;;;7.40;71.30;;;;;;5016851;28;20053;-76
2022/04/17 05:51:00;;;;;;;116.72;105.57;;;7.40;69.70;;;;;;5016495;28;19968;-76
2022/04/17 05:53:27;;;;;;;115.22;104.30;;;7.40;71.20;;;;;;5018170;28;20049;-76
2022/04/17 05:55:54;;;;;;;114.20;103.32;;;7.50;71.70;;;;;;5018763;28;20042;-76
2022/04/17 05:58:24;;;;;;;115.47;104.75;;;7.50;72.10;;;;;;5017856;28;20050;-76
2022/04/17 06:00:53;;;;;;;116.25;105.32;;;7.50;72.30;;;;;;5036257;28;20050;-76
2022/04/17 06:03:20;;;;;;;116.10;104.80;;;7.50;72.60;;;;;;5034754;28;20144;-76
2022/04/17 06:05:48;;;;;;;117.22;106.25;;;7.50;72.90;;;;;;5035152;28;20054;-76
2022/04/17 06:08:15;;;;;;;118.30;107.28;;;7.50;73.10;;;;;;5016404;28;20453;-76
2022/04/17 06:10:42;;;;;;;118.07;107.25;;;7.50;73.50;;;;;;5034737;28;20049;-76
2022/04/17 06:13:08;;;;;;;118.05;107.25;;;7.50;73.80;;;;;;5032099;28;20060;-76
2022/04/17 06:15:35;;;;;;;119.78;108.35;;;7.60;73.90;;;;;;5034329;28;20046;-76
2022/04/17 06:18:02;;;;;;;117.00;105.95;;;7.70;74.30;;;;;;5017347;28;20050;-76
2022/04/17 06:20:29;;;;;;;117.28;106.10;;;7.60;74.60;;;;;;5020061;28;20058;-76
2022/04/17 06:22:57;;;;;;;115.35;104.28;;;7.70;74.80;;;;;;5017195;28;20081;-76
2022/04/17 06:25:25;;;;;;;117.43;106.25;;;7.70;74.90;;;;;;5015943;28;20053;-76
2022/04/17 06:27:52;;;;;;;116.18;105.28;;;7.80;75.20;;;;;;5017369;28;20121;-76
2022/04/17 06:30:20;;;;;;;116.65;105.85;;;7.80;75.50;;;;;;5017515;28;20057;-76
2022/04/17 06:32:48;;;;;;;116.00;105.20;;;7.80;75.80;;;;;;5017407;28;20518;-76
2022/04/17 06:35:16;;;;;;;116.03;105.22;;;7.90;76.10;;;;;;5035451;28;20054;-76
2022/04/17 06:37:48;;;;;;;114.82;104.13;;;7.90;76.50;;;;;;5035305;28;20058;-76
2022/04/17 06:40:18;;;;;;;117.10;106.00;;;7.90;76.60;;;;;;5017100;28;20440;-76
2022/04/17 06:42:45;;;;;;;115.55;104.65;;;7.90;76.60;;;;;;5033564;28;20046;-76
2022/04/17 06:45:12;;;;;;;116.18;105.18;;;8.00;77.40;;;;;;5017330;28;20061;-76
2022/04/17 06:47:39;;;;;;;115.82;105.00;;;8.00;77.50;;;;;;5032490;28;20054;-76
2022/04/17 06:50:06;;;;;;;114.68;103.97;;;8.00;78.10;;;;;;5016691;28;20050;-76
2022/04/17 06:52:33;;;;;;;116.80;105.78;;;8.00;78.30;;;;;;5029510;28;20471;-75
2022/04/17 06:55:05;;;;;;;116.82;105.97;;;8.00;78.20;;;;;;5016131;28;20527;-76
2022/04/17 06:57:34;;;;;;;116.38;105.25;;;8.10;78.20;;;;;;5016121;28;20828;-76
2022/04/17 07:00:05;;;;;;;118.15;107.15;;;8.20;78.20;;;;;;5016283;28;20508;-76
2022/04/17 07:02:33;;;;;;;114.60;104.00;;;8.20;78.30;;;;;;5016891;28;20054;-76
2022/04/17 07:04:59;;;;;;;119.72;107.25;;;8.20;78.00;;;;;;5033007;28;20133;-76
2022/04/17 07:07:26;;;;;;;115.70;104.38;;;8.30;78.20;;;;;;5014904;28;20049;-76
2022/04/17 07:09:55;;;;;;;116.53;105.43;;;8.30;78.60;;;;;;5034108;28;20054;-76
2022/04/17 07:12:22;;;;;;;115.85;105.05;;;8.40;79.10;;;;;;5016573;28;20053;-75
2022/04/17 07:14:50;;;;;;;;;;;8.40;79.10;;;;;;5034146;28;20050;-75
2022/04/17 07:17:18;;;;;;;117.50;106.47;;;8.40;78.70;;;;;;5034814;28;19932;-76
2022/04/17 07:19:46;;;;;;;115.97;105.15;;;8.50;79.10;;;;;;5016170;28;20084;-75
2022/04/17 07:22:13;;;;;;;116.13;105.30;;;8.50;79.60;;;;;;5016193;28;20045;-76
2022/04/17 07:24:43;;;;;;;115.97;104.97;;;8.60;79.80;;;;;;4999821;28;20132;-76
2022/04/17 07:27:11;;;;;;;115.50;104.72;;;8.60;79.70;;;;;;5015841;28;20049;-77
2022/04/17 07:29:38;;;;;;;115.90;105.13;;;8.70;79.90;;;;;;5015467;28;20100;-76
2022/04/17 07:32:09;;;;;;;115.03;104.43;;;8.80;79.60;;;;;;5015704;28;20050;-76
2022/04/17 07:34:36;;;;;;;113.57;103.03;;;8.80;79.30;;;;;;4981815;28;20125;-76
2022/04/17 07:37:03;;;;;;;116.97;105.97;;;8.90;78.30;;;;;;5013595;28;20038;-76
2022/04/17 07:39:30;;;;;;;117.60;106.90;;;9.00;77.60;;;;;;5013896;28;20058;-75
2022/04/17 07:41:57;;;;;;;114.05;103.45;;;9.00;76.70;;;;;;5026686;28;20425;-75
2022/04/17 07:44:26;;;;;;;120.30;109.25;;;9.10;77.10;;;;;;5023913;28;20054;-74
2022/04/17 07:46:53;;;;;;;115.95;105.15;;;9.20;76.90;;;;;;5023196;28;20866;-75
2022/04/17 07:49:26;;;;;;;115.88;105.10;;;9.20;77.20;;;;;;5018776;28;20057;-75
2022/04/17 07:52:02;;;;;;;113.57;102.75;;;9.20;77.20;;;;;;5024012;28;20050;-75
2022/04/17 07:54:28;;;;;;;;;;;9.30;76.40;;;;;;5010362;28;20046;-76
2022/04/17 07:56:57;;;;;;;116.25;105.13;;;9.40;75.20;;;;;;5024637;28;20531;-76
2022/04/17 07:59:25;;;;;;;114.45;103.65;;;9.50;75.10;;;;;;5034242;28;20054;-76
2022/04/17 08:02:01;;;;;;;114.15;103.20;;;9.50;74.50;;;;;;5033477;28;20050;-77
2022/04/17 08:04:32;;;;;;;113.93;103.13;;;9.60;74.00;;;;;;5034094;28;20054;-77
2022/04/17 08:07:02;;;;;;;115.85;105.05;;;9.70;72.70;;;;;;5033977;28;20053;-76
2022/04/17 08:09:29;;;;;;;114.85;104.35;;;9.70;72.20;;;;;;5020771;28;20057;-77
2022/04/17 08:11:56;;;;;;;113.32;102.82;;;9.80;72.30;;;;;;5012595;28;20058;-75
2022/04/17 08:14:23;;;;;;;113.78;103.30;;;9.90;72.40;;;;;;4995955;28;20469;-77
2022/04/17 08:16:50;;;;;;;112.85;102.55;;;10.00;72.20;;;;;;5000857;28;20050;-77
2022/04/17 08:19:16;;;;;;;113.18;102.75;;;10.00;72.80;;;;;;5033461;28;20058;-76
2022/04/17 08:21:44;;;;;;;;;;;10.10;72.80;;;;;;5015649;28;20046;-75
2022/04/17 08:24:11;;;;;;;114.30;103.85;;;10.10;72.30;;;;;;5009647;28;20804;-74
2022/04/17 08:26:38;;;;;;;;;;;10.20;72.60;;;;;;5026177;28;20517;-75
2022/04/17 08:29:05;;;;;;;114.35;103.57;;;10.30;70.70;;;;;;5010035;28;19932;-82
2022/04/17 08:31:32;;;;;;;115.43;104.88;;;10.30;71.10;;;;;;4998405;28;20144;-81
2022/04/17 08:34:00;;;;;;;115.03;104.60;;;10.40;71.10;;;;;;5015685;28;20064;-77
2022/04/17 08:36:26;;;;;;;114.28;103.57;;;10.50;70.90;;;;;;5032305;28;20054;-77
2022/04/17 08:38:55;;;;;;;112.07;101.88;;;10.60;69.80;;;;;;5013431;28;20053;-77
2022/04/17 08:41:23;;;;;;;112.95;102.75;;;10.60;70.30;;;;;;5015503;28;20052;-76
2022/04/17 08:43:50;;;;;;;111.93;101.88;;;10.70;68.00;;;;;;5013231;28;20480;-76
2022/04/17 08:46:17;;;;;;;111.03;100.90;;;10.80;66.80;;;;;;4998270;28;20054;-78
2022/04/17 08:48:44;;;;;;;112.15;101.30;;;10.90;67.20;;;;;;5016673;28;20057;-81
2022/04/17 08:51:11;;;;;;;112.47;102.18;;;10.90;64.80;;;;;;5021463;28;20161;-75
2022/04/17 08:53:41;;;;;;;112.18;101.82;;;11.00;63.30;;;;;;5038185;28;20128;-73
2022/04/17 08:56:09;;;;;;;113.88;102.80;;;11.00;64.90;;;;;;5021829;28;20061;-79
2022/04/17 08:58:36;;;;;;;112.53;102.38;;;11.10;65.80;;;;;;5021061;28;20058;-82
2022/04/17 09:01:03;;;;;;;115.32;104.82;;;11.20;64.20;;;;;;5021004;28;20060;-78
2022/04/17 09:03:31;;;;;;;112.85;102.63;;;11.20;64.10;;;;;;5037154;28;20092;-76
2022/04/17 09:05:59;;;;;;;114.57;104.18;;;11.30;65.00;;;;;;5035654;28;20057;-77
2022/04/17 09:08:28;;;;;;;116.13;105.72;;;11.40;66.30;;;;;;5000015;28;20050;-76
2022/04/17 09:10:56;;;;;;;113.63;103.35;;;11.40;66.90;;;;;;5020974;28;20041;-74
2022/04/17 09:13:29;;;;;;;114.28;104.03;;;11.50;66.40;;;;;;5038600;28;20057;-77
2022/04/17 09:15:57;;;;;;;116.88;106.18;;;11.60;65.40;;;;;;5000893;28;20140;-77
2022/04/17 09:18:27;;;;;;;121.30;110.03;;;11.70;65.20;;;;;;5036860;28;20132;-77
2022/04/17 09:20:54;;;;;;;117.57;106.78;;;11.80;63.50;;;;;;5003277;28;20046;-78
2022/04/17 09:23:36;;;;;;;114.75;104.45;;;11.90;63.40;;;;;;5021056;28;20160;-79
2022/04/17 09:26:05;;;;;;;114.15;103.95;;;11.90;64.00;;;;;;5021333;28;20054;-77
2022/04/17 09:28:34;;;;;;;119.00;108.07;;;12.00;63.50;;;;;;5020261;28;20058;-77
2022/04/17 09:31:02;;;;;;;120.05;109.30;;;12.10;63.00;;;;;;5020240;28;20523;-77
2022/04/17 09:33:39;;;;;;;118.43;107.93;;;12.20;63.90;;;;;;5018809;28;20050;-76
2022/04/17 09:36:08;;;;;;;115.20;104.47;;;12.20;62.40;;;;;;5020401;28;20057;-77
2022/04/17 09:38:35;;;;;;;116.03;105.53;;;12.40;61.60;;;;;;5019577;28;20049;-77
2022/04/17 09:41:06;;;;;;;115.65;105.50;;;12.40;60.50;;;;;;5020570;28;20048;-76
2022/04/17 09:43:35;;;;;;;117.22;106.75;;;12.50;60.90;;;;;;5033429;28;20055;-76
2022/04/17 09:46:04;;;;;;;120.63;110.22;;;12.50;60.20;;;;;;5018414;28;20058;-76
2022/04/17 09:48:33;;;;;;;117.65;107.45;;;12.60;57.90;;;;;;5035869;28;20057;-76
2022/04/17 09:51:02;;;;;;;118.65;108.35;;;12.70;57.70;;;;;;4996995;28;20062;-76
2022/04/17 09:53:33;;;;;;;116.80;106.47;;;12.80;58.00;;;;;;5020334;28;20050;-78
2022/04/17 09:56:11;;;;;;;117.57;107.22;;;12.80;57.80;;;;;;5018703;28;20054;-77
2022/04/17 09:58:45;;;;;;;118.63;108.28;;;12.90;57.80;;;;;;5017894;28;20061;-77
2022/04/17 10:01:16;;;;;;;117.05;106.70;;;12.90;57.50;;;;;;5017917;28;20519;-76
2022/04/17 10:03:43;;;;;;;119.32;108.72;;;13.00;58.10;;;;;;5011247;28;20457;-78
2022/04/17 10:06:11;;;;;;;116.68;106.38;;;13.10;58.10;;;;;;4997685;28;20065;-78
2022/04/17 10:08:42;;;;;;;120.10;109.55;;;13.20;58.00;;;;;;5011118;28;20057;-76
2022/04/17 10:11:09;;;;;;;116.70;106.50;;;13.20;58.60;;;;;;5015259;28;20246;-80
2022/04/17 10:13:36;;;;;;;118.60;108.22;;;13.30;58.80;;;;;;5017269;28;20042;-78
2022/04/17 10:16:07;;;;;;;116.50;106.10;;;13.40;57.60;;;;;;5016540;28;20056;-77
2022/04/17 10:18:35;;;;;;;116.25;105.85;;;13.50;55.80;;;;;;5016097;28;20054;-80
2022/04/17 10:21:04;;;;;;;117.75;107.32;;;13.50;56.80;;;;;;5033580;28;20054;-79
2022/04/17 10:23:33;;;;;;;119.10;108.50;;;13.60;54.60;;;;;;4999220;28;20512;-79
2022/04/17 10:26:03;;;;;;;116.88;106.65;;;13.70;53.80;;;;;;5024771;28;20119;-77
2022/04/17 10:28:37;;;;;;;118.40;108.20;;;13.80;51.00;;;;;;5016287;28;20526;-77
2022/04/17 10:31:19;;;;;;;120.50;110.10;;;13.80;51.60;;;;;;5017467;28;20545;-77
2022/04/17 10:34:23;;;;;;;115.50;105.40;;;13.90;51.30;;;;;;5016948;28;20058;-76
2022/04/17 10:37:12;;;;;;;116.60;106.55;;;13.90;50.90;;;;;;5016642;28;20073;-83
2022/04/17 10:39:42;;;;;;;120.25;109.93;;;14.00;51.60;;;;;;5006248;28;20058;-78
2022/04/17 10:42:10;;;;;;;119.68;109.22;;;14.10;50.60;;;;;;5017393;28;20129;-79
2022/04/17 10:44:41;;;;;;;119.25;109.18;;;14.10;50.80;;;;;;5017409;28;20074;-84
2022/04/17 10:47:17;;;;;;;120.78;110.60;;;14.30;50.70;;;;;;5000140;28;20102;-77
2022/04/17 10:49:53;;;;;;;120.80;110.70;;;14.40;49.90;;;;;;5035711;28;20050;-80
2022/04/17 10:52:27;;;;;;;119.82;109.72;;;14.50;50.30;;;;;;5017239;28;20524;-81
2022/04/17 10:54:55;;;;;;;120.00;109.80;;;14.60;49.20;;;;;;5017609;28;20061;-78
2022/04/17 10:57:25;;;;;;;119.63;109.63;;;14.70;48.90;;;;;;5016961;28;20065;-78
2022/04/17 11:00:25;;;;;;;119.78;109.57;;;14.80;48.50;;;;;;5017362;28;20420;-79
2022/04/17 11:02:54;;;;;;;120.18;109.97;;;14.80;48.90;;;;;;5016978;28;20427;-77
2022/04/17 11:06:08;;;;;;;120.35;110.15;;;14.90;49.80;;;;;;5001122;28;20061;-76
2022/04/17 11:08:26;;;;;;;118.80;108.80;;;15.00;49.60;;;;;;5034437;28;20136;-79
2022/04/17 11:10:54;;;;;;;121.22;111.25;;;15.20;49.60;;;;;;5015852;28;20046;-79
2022/04/17 11:13:22;;;;;;;120.57;110.30;;;15.30;50.10;;;;;;5016708;28;20058;-80
2022/04/17 11:15:55;;;;;;;118.05;107.93;;;15.40;49.00;;;;;;5035023;28;20516;-77
2022/04/17 11:18:28;;;;;;;119.35;109.25;;;15.50;47.80;;;;;;5034568;28;20500;-79
2022/04/17 11:20:56;;;;;;;122.00;112.30;;;15.60;47.60;;;;;;5000398;28;20574;-78
2022/04/17 11:23:57;;;;;;;121.03;111.15;;;15.70;46.70;;;;;;5016427;28;20056;-77
2022/04/17 11:26:58;;;;;;;120.53;110.50;;;15.80;47.30;;;;;;5016429;28;20064;-76
2022/04/17 11:29:35;;;;;;;122.32;112.47;;;15.90;46.90;;;;;;5014852;28;20053;-77
2022/04/17 11:32:02;;;;;;;120.10;110.18;;;15.90;47.60;;;;;;5034983;28;20594;-79
2022/04/17 11:34:43;;;;;;;118.75;108.90;;;16.00;47.20;;;;;;5017007;28;20502;-78
2022/04/17 11:37:11;;;;;;;122.18;112.03;;;16.10;48.50;;;;;;4999650;28;20038;-77
2022/04/17 11:39:38;;;;;;;120.00;110.25;;;16.20;47.30;;;;;;5016966;28;20064;-77
2022/04/17 11:42:06;;;;;;;119.38;109.60;;;16.20;46.60;;;;;;5017068;28;20057;-81
2022/04/17 11:44:33;;;;;;;121.70;111.63;;;16.30;47.20;;;;;;5016724;28;20058;-83
2022/04/17 11:47:00;;;;;;;124.63;114.35;;;16.40;46.80;;;;;;4998410;28;20050;-76
2022/04/17 11:49:32;;;;;;;127.18;113.25;;;16.40;47.20;;;;;;5016665;28;20157;-79
2022/04/17 11:52:12;;;;;;;123.20;113.20;;;16.50;46.80;;;;;;5016101;28;20050;-77
2022/04/17 11:54:39;;;;;;;122.95;113.25;;;16.60;46.80;;;;;;5016419;28;20078;-80
2022/04/17 11:57:07;;;;;;;127.80;117.72;;;16.70;45.70;;;;;;5015894;28;20514;-78
2022/04/17 11:59:45;;;;;;;122.63;112.75;;;16.80;44.40;;;;;;5034258;28;20571;-76
2022/04/17 12:02:14;;;;;;;122.32;112.50;;;16.90;45.00;;;;;;5034400;28;20136;-78
2022/04/17 12:04:42;;;;;;;122.30;112.55;;;16.90;45.40;;;;;;5000463;28;20054;-79
2022/04/17 12:07:11;;;;;;;124.22;114.40;;;17.00;45.60;;;;;;5015400;28;20551;-79
2022/04/17 12:09:40;;;;;;;121.57;111.97;;;17.10;45.80;;;;;;4999956;28;20461;-78
2022/04/17 12:12:10;;;;;;;123.10;113.30;;;17.20;45.30;;;;;;5016289;28;21091;-79
2022/04/17 12:14:37;;;;;;;122.97;113.40;;;17.30;43.20;;;;;;5033865;28;20054;-81
2022/04/17 12:17:05;;;;;;;125.72;115.88;;;17.40;43.20;;;;;;4998988;28;20042;-82
2022/04/17 12:19:32;;;;;;;123.10;113.60;;;17.50;44.60;;;;;;5015244;28;20053;-80
2022/04/17 12:22:00;;;;;;;123.78;114.03;;;17.50;45.40;;;;;;5016363;28;20086;-77
2022/04/17 12:24:28;;;;;;;124.72;115.15;;;17.70;44.60;;;;;;5032526;28;20053;-80
2022/04/17 12:26:55;;;;;;;126.05;116.32;;;17.80;43.60;;;;;;5015631;28;20054;-80
2022/04/17 12:29:23;;;;;;;123.35;113.85;;;17.90;43.50;;;;;;5015989;28;20064;-80
2022/04/17 12:31:50;;;;;;;123.88;114.18;;;17.90;44.00;;;;;;5015919;28;20504;-82
2022/04/17 12:34:19;;;;;;;124.65;114.93;;;18.00;44.00;;;;;;4999561;28;20060;-79
2022/04/17 12:36:46;;;;;;;125.65;115.50;;;18.10;43.30;;;;;;4999110;28;20046;-81
2022/04/17 12:39:13;;;;;;;126.40;116.38;;;18.20;44.20;;;;;;5014666;28;20056;-80